Time;durP1;ratioP1;P1;durP2;ratioP2;P2;SDS_P1;SDS_P2;PMS_P1;PMS_P2;Temp;Humidity;BMP_temperature;BMP_pressure;BME280_temperature;BME280_humidity;BME280_pressure;Samples;Min_cycle;Max_cycle;Signal;HPM_P1;HPM_P2
2022/11/02 00:02:15;;;;;;;2.90;1.30;;;13.70;99.90;;;;;;7393113;19;20151;-85
2022/11/02 00:04:41;;;;;;;2.00;1.33;;;13.80;99.90;;;;;;7390228;19;20154;-85
2022/11/02 00:07:07;;;;;;;4.53;1.70;;;13.70;99.90;;;;;;7396483;19;20503;-84
2022/11/02 00:09:32;;;;;;;2.37;1.33;;;13.70;99.90;;;;;;7391763;19;20181;-77
2022/11/02 00:11:58;;;;;;;3.33;1.40;;;13.80;99.90;;;;;;7393455;19;20138;-86
2022/11/02 00:14:24;;;;;;;4.60;1.50;;;13.70;99.90;;;;;;7392665;19;20139;-76
2022/11/02 00:16:50;;;;;;;2.28;1.35;;;13.70;99.90;;;;;;7393362;19;20529;-82
2022/11/02 00:19:16;;;;;;;2.27;1.20;;;13.70;99.90;;;;;;7394073;19;20163;-85
2022/11/02 00:21:42;;;;;;;3.97;1.30;;;13.70;99.90;;;;;;7396527;19;20131;-86
2022/11/02 00:24:09;;;;;;;6.17;1.50;;;13.60;99.90;;;;;;7391422;19;20463;-85
2022/11/02 00:26:35;;;;;;;3.17;1.00;;;13.50;99.90;;;;;;7395261;19;20127;-85
2022/11/02 00:29:03;;;;;;;1.93;1.20;;;13.60;99.90;;;;;;7391240;19;20142;-83
2022/11/02 00:31:29;;;;;;;3.00;1.50;;;13.40;99.90;;;;;;7392449;19;20122;-84
2022/11/02 00:33:55;;;;;;;2.50;1.30;;;13.40;99.90;;;;;;7393082;19;20595;-83
2022/11/02 00:36:23;;;;;;;1.87;1.13;;;13.30;99.90;;;;;;7394032;19;20809;-84
2022/11/02 00:38:49;;;;;;;4.40;1.40;;;13.30;99.90;;;;;;7392583;19;20512;-82
2022/11/02 00:41:17;;;;;;;2.90;1.00;;;13.40;99.90;;;;;;7391532;19;20580;-83
2022/11/02 00:43:43;;;;;;;2.90;1.30;;;13.30;99.90;;;;;;7392677;19;20135;-83
2022/11/02 00:46:10;;;;;;;3.20;1.40;;;13.20;99.90;;;;;;7390672;19;20145;-84
2022/11/02 00:48:35;;;;;;;4.37;1.63;;;13.10;99.90;;;;;;7393816;19;20158;-85
2022/11/02 00:51:01;;;;;;;2.07;1.17;;;13.00;99.90;;;;;;7394938;19;20131;-86
2022/11/02 00:53:27;;;;;;;3.07;1.10;;;13.10;99.90;;;;;;7393068;19;20140;-83
2022/11/02 00:55:53;;;;;;;3.50;1.17;;;12.90;99.90;;;;;;7391836;19;20163;-84
2022/11/02 00:58:19;;;;;;;2.70;1.40;;;13.10;99.90;;;;;;7393035;19;20131;-85
2022/11/02 01:00:45;;;;;;;3.47;1.13;;;13.20;99.90;;;;;;7393350;19;20221;-87
2022/11/02 01:03:10;;;;;;;3.20;1.27;;;13.20;99.90;;;;;;7387051;19;20183;-88
2022/11/02 01:05:37;;;;;;;5.13;1.58;;;13.20;99.90;;;;;;7392858;19;20488;-85
2022/11/02 01:08:03;;;;;;;2.87;1.30;;;13.30;99.90;;;;;;7391054;19;20130;-87
2022/11/02 01:10:29;;;;;;;6.18;1.33;;;13.40;99.90;;;;;;7393534;19;20166;-85
2022/11/02 01:12:54;;;;;;;5.60;1.33;;;13.40;99.90;;;;;;7394575;19;20135;-86
2022/11/02 01:15:20;;;;;;;5.80;1.13;;;13.60;99.90;;;;;;7392940;19;20150;-86
2022/11/02 01:17:46;;;;;;;4.93;1.30;;;13.60;99.90;;;;;;7391712;19;20147;-86
2022/11/02 01:20:13;;;;;;;2.55;1.65;;;13.50;99.90;;;;;;7389760;19;20638;-84
2022/11/02 01:22:38;;;;;;;5.03;1.30;;;13.50;99.90;;;;;;7392153;19;20155;-85
2022/11/02 01:25:04;;;;;;;3.13;1.33;;;13.40;99.90;;;;;;7393949;19;20166;-86
2022/11/02 01:27:30;;;;;;;2.10;1.05;;;13.30;99.90;;;;;;7398068;19;20134;-78
2022/11/02 01:29:56;;;;;;;5.03;1.40;;;13.50;99.90;;;;;;7395754;19;20150;-85
2022/11/02 01:32:22;;;;;;;2.70;1.00;;;13.50;99.90;;;;;;7395747;19;20565;-83
2022/11/02 01:34:48;;;;;;;5.47;1.30;;;13.30;99.90;;;;;;7400159;19;20139;-79
2022/11/02 01:37:13;;;;;;;2.50;1.10;;;13.40;99.90;;;;;;7403892;19;20170;-83
2022/11/02 01:39:39;;;;;;;3.30;1.00;;;13.40;99.90;;;;;;7409864;19;20139;-84
2022/11/02 01:42:20;;;;;;;3.67;1.20;;;13.50;99.90;;;;;;7401339;19;20134;-83
2022/11/02 01:44:46;;;;;;;4.70;1.10;;;13.10;99.90;;;;;;7409308;19;20486;-86
2022/11/02 01:47:12;;;;;;;3.28;0.90;;;13.10;99.90;;;;;;7405599;19;20138;-84
2022/11/02 01:49:42;;;;;;;2.92;1.15;;;13.00;99.90;;;;;;7403912;19;20584;-87
2022/11/02 01:52:21;;;;;;;2.97;1.60;;;13.00;99.90;;;;;;7401539;19;20134;-87
2022/11/02 01:54:54;;;;;;;3.80;1.10;;;12.90;99.90;;;;;;7399206;19;20180;-85
2022/11/02 01:57:21;;;;;;;4.88;1.40;;;13.00;99.90;;;;;;7398361;19;20529;-85
2022/11/02 02:00:15;;;;;;;2.70;1.15;;;13.20;99.90;;;;;;7399135;19;20131;-84
2022/11/02 02:02:47;;;;;;;4.10;1.15;;;13.20;99.90;;;;;;7399354;19;20186;-85
2022/11/02 02:05:14;;;;;;;3.58;1.17;;;13.20;99.90;;;;;;7398087;19;20127;-84
2022/11/02 02:07:40;;;;;;;5.03;1.58;;;13.10;99.90;;;;;;7399506;19;20894;-86
2022/11/02 02:10:07;;;;;;;3.47;1.20;;;13.10;99.90;;;;;;7399381;19;20238;-87
2022/11/02 02:12:38;;;;;;;2.28;1.27;;;12.80;99.90;;;;;;7400928;19;20603;-84
2022/11/02 02:15:05;;;;;;;3.50;1.20;;;12.60;99.90;;;;;;7399713;19;20135;-84
2022/11/02 02:17:52;;;;;;;4.03;1.35;;;12.50;99.90;;;;;;7397465;19;20157;-87
2022/11/02 02:20:39;;;;;;;3.83;1.20;;;12.80;99.90;;;;;;7393441;19;20170;-86
2022/11/02 02:23:25;;;;;;;3.10;1.10;;;12.90;99.90;;;;;;7396662;19;20146;-83
2022/11/02 02:26:28;;;;;;;3.00;0.90;;;12.80;99.90;;;;;;7401134;19;20144;-87
2022/11/02 02:29:00;;;;;;;3.30;1.13;;;12.60;99.90;;;;;;7398822;19;20147;-81
2022/11/02 02:31:28;;;;;;;1.25;1.13;;;12.50;99.90;;;;;;7399218;19;20143;-86
2022/11/02 02:34:10;;;;;;;1.10;0.80;;;12.40;99.90;;;;;;7397166;19;21000;-87
2022/11/02 02:37:24;;;;;;;2.40;0.93;;;12.60;99.90;;;;;;7395848;19;20487;-85
2022/11/02 02:40:03;;;;;;;3.00;1.08;;;12.90;99.90;;;;;;7395312;19;20134;-85
2022/11/02 02:42:33;;;;;;;2.53;1.40;;;12.60;99.90;;;;;;7400183;19;20141;-84
2022/11/02 02:45:21;;;;;;;3.17;1.00;;;12.60;99.90;;;;;;7394926;19;20154;-86
2022/11/02 02:48:18;;;;;;;2.88;1.50;;;12.60;99.90;;;;;;7401467;19;20131;-87
2022/11/02 02:50:55;;;;;;;2.58;1.10;;;12.90;99.90;;;;;;7401817;19;20465;-86
2022/11/02 02:53:35;;;;;;;2.50;1.10;;;12.70;99.90;;;;;;7407790;19;20147;-87
2022/11/02 02:56:02;;;;;;;2.58;1.27;;;12.50;99.90;;;;;;7422917;19;20355;-87
2022/11/02 02:58:35;;;;;;;3.05;1.52;;;12.50;99.90;;;;;;7425304;19;20122;-86
2022/11/02 03:01:04;;;;;;;2.20;1.20;;;12.70;99.90;;;;;;7420683;19;20887;-88
2022/11/02 03:03:33;;;;;;;2.47;1.10;;;12.90;99.90;;;;;;7423077;19;20143;-86
2022/11/02 03:06:07;;;;;;;1.00;0.90;;;12.60;99.90;;;;;;7422490;19;20130;-87
2022/11/02 03:08:37;;;;;;;2.80;1.23;;;12.70;99.90;;;;;;7410337;19;20158;-86
2022/11/02 03:11:17;;;;;;;3.60;1.20;;;12.70;99.90;;;;;;7404972;19;20811;-86
2022/11/02 03:13:58;;;;;;;3.95;1.63;;;12.80;99.90;;;;;;7401295;19;20142;-79
2022/11/02 03:16:56;;;;;;;4.13;1.10;;;12.50;99.90;;;;;;7403799;19;20139;-82
2022/11/02 03:19:49;;;;;;;2.22;1.40;;;12.60;99.90;;;;;;7403690;19;20150;-86
2022/11/02 03:22:25;;;;;;;3.53;1.38;;;12.70;99.90;;;;;;7395029;19;20176;-86
2022/11/02 03:25:33;;;;;;;4.80;1.10;;;12.80;99.90;;;;;;7395771;19;20469;-74
2022/11/02 03:28:30;;;;;;;7.07;1.30;;;12.80;99.90;;;;;;7389450;19;20142;-73
2022/11/02 03:31:17;;;;;;;1.63;1.10;;;12.90;99.90;;;;;;7392352;19;20250;-74
2022/11/02 03:33:53;;;;;;;3.17;1.30;;;12.50;99.90;;;;;;7394426;19;20135;-73
2022/11/02 03:36:31;;;;;;;1.65;1.15;;;12.30;99.90;;;;;;7394529;19;20146;-74
2022/11/02 03:39:07;;;;;;;3.10;1.33;;;12.20;99.90;;;;;;7395585;19;20130;-74
2022/11/02 03:41:35;;;;;;;2.95;1.08;;;12.20;99.90;;;;;;7392428;19;20138;-73
2022/11/02 03:44:12;;;;;;;1.75;1.00;;;12.50;99.90;;;;;;7393024;19;20138;-73
2022/11/02 03:46:40;;;;;;;1.80;1.00;;;12.70;99.90;;;;;;7394811;19;20142;-73
2022/11/02 03:49:12;;;;;;;2.22;1.27;;;12.70;99.90;;;;;;7394131;19;20146;-72
2022/11/02 03:51:41;;;;;;;4.38;1.40;;;12.80;99.90;;;;;;7394142;19;20139;-73
2022/11/02 03:54:39;;;;;;;1.30;0.83;;;12.80;99.90;;;;;;7394599;19;20142;-74
2022/11/02 03:57:10;;;;;;;3.63;1.30;;;13.20;99.90;;;;;;7391573;19;20134;-74
2022/11/02 03:59:36;;;;;;;1.67;1.20;;;13.00;99.90;;;;;;7390864;19;20599;-72
2022/11/02 04:02:03;;;;;;;4.13;1.20;;;13.10;99.90;;;;;;7391906;19;20139;-73
2022/11/02 04:04:28;;;;;;;3.45;1.00;;;13.00;99.90;;;;;;7391395;19;20170;-74
2022/11/02 04:06:55;;;;;;;4.82;1.30;;;13.00;99.90;;;;;;7392362;19;20157;-73
2022/11/02 04:09:20;;;;;;;2.80;1.40;;;13.00;99.90;;;;;;7392543;19;20155;-73
2022/11/02 04:14:36;;;;;;;2.40;1.33;;;13.30;99.90;;;;;;7389894;19;20570;-73
2022/11/02 04:19:49;;;;;;;3.35;1.50;;;13.50;99.90;;;;;;7393085;19;20546;-73
2022/11/02 04:25:17;;;;;;;3.13;1.30;;;13.60;99.90;;;;;;7395508;19;20149;-75
2022/11/02 04:27:49;;;;;;;3.08;1.08;;;13.70;99.90;;;;;;7392008;19;20509;-74
2022/11/02 04:30:16;;;;;;;1.93;1.13;;;13.60;99.90;;;;;;7391608;19;20146;-74
2022/11/02 04:35:29;;;;;;;5.30;1.23;;;13.60;99.90;;;;;;7390555;19;20926;-74
2022/11/02 04:40:40;;;;;;;2.08;0.98;;;13.70;99.90;;;;;;7390847;19;20265;-74
2022/11/02 04:43:06;;;;;;;2.03;1.10;;;13.60;99.90;;;;;;7392077;19;20588;-73
2022/11/02 04:45:31;;;;;;;1.92;1.13;;;13.60;99.90;;;;;;7390598;19;20221;-75
2022/11/02 04:48:05;;;;;;;3.67;1.57;;;13.80;99.90;;;;;;7391934;19;20146;-73
2022/11/02 04:50:32;;;;;;;3.78;1.52;;;13.40;99.90;;;;;;7391016;19;20147;-75
2022/11/02 04:52:59;;;;;;;2.28;1.13;;;13.20;99.90;;;;;;7393574;19;20142;-75
2022/11/02 04:55:26;;;;;;;3.72;1.25;;;13.00;99.90;;;;;;7389816;19;20147;-73
2022/11/02 04:57:52;;;;;;;2.67;1.40;;;13.20;99.90;;;;;;7389819;19;20188;-73
2022/11/02 05:00:20;;;;;;;2.33;1.10;;;13.30;99.90;;;;;;7390693;19;20146;-73
2022/11/02 05:02:47;;;;;;;4.20;1.38;;;13.30;99.90;;;;;;7390556;19;20181;-73
2022/11/02 05:05:14;;;;;;;1.43;0.90;;;13.40;99.90;;;;;;7392171;19;20502;-72
2022/11/02 05:07:41;;;;;;;2.67;1.27;;;13.40;99.90;;;;;;7390906;19;20142;-74
2022/11/02 05:10:08;;;;;;;5.00;1.10;;;13.50;99.90;;;;;;7391188;19;20479;-73
2022/11/02 05:12:33;;;;;;;1.87;1.20;;;13.40;99.90;;;;;;7393004;19;20166;-73
2022/11/02 05:14:59;;;;;;;3.50;1.42;;;13.50;99.90;;;;;;7391454;19;20135;-73
2022/11/02 05:17:25;;;;;;;3.60;1.50;;;13.50;99.90;;;;;;7391775;19;20153;-73
2022/11/02 05:19:50;;;;;;;3.30;1.37;;;13.60;99.90;;;;;;7389329;19;20146;-73
2022/11/02 05:22:16;;;;;;;3.70;0.93;;;13.60;99.90;;;;;;7391482;19;20130;-73
2022/11/02 05:24:42;;;;;;;2.97;1.17;;;13.40;99.90;;;;;;7388972;19;20138;-74
2022/11/02 05:27:09;;;;;;;2.22;1.27;;;13.50;99.90;;;;;;7390085;19;20673;-74
2022/11/02 05:29:35;;;;;;;7.73;1.70;;;13.50;99.90;;;;;;7388450;19;20163;-73
2022/11/02 05:32:01;;;;;;;2.20;1.50;;;13.50;99.90;;;;;;7389826;19;20134;-74
2022/11/02 05:34:27;;;;;;;3.07;1.37;;;13.60;99.90;;;;;;7392060;19;20205;-74
2022/11/02 05:36:52;;;;;;;2.70;1.20;;;13.60;99.90;;;;;;7390703;19;20170;-73
2022/11/02 05:39:18;;;;;;;3.17;1.30;;;13.60;99.90;;;;;;7392628;19;20146;-73
2022/11/02 05:41:44;;;;;;;4.55;1.30;;;13.70;99.90;;;;;;7390950;19;20611;-73
2022/11/02 05:44:09;;;;;;;4.15;1.40;;;13.60;99.90;;;;;;7386984;19;20226;-73
2022/11/02 05:46:35;;;;;;;3.03;1.30;;;13.50;99.90;;;;;;7388588;19;20150;-74
2022/11/02 05:49:01;;;;;;;2.70;1.30;;;13.30;99.90;;;;;;7390029;19;20150;-74
2022/11/02 05:51:27;;;;;;;3.45;1.30;;;13.30;99.90;;;;;;7390527;19;20138;-73
2022/11/02 05:53:52;;;;;;;2.10;1.10;;;13.40;99.90;;;;;;7388994;19;20154;-73
2022/11/02 05:56:18;;;;;;;3.50;1.10;;;13.50;99.90;;;;;;7392045;19;20131;-74
2022/11/02 05:58:44;;;;;;;5.57;1.48;;;13.50;99.90;;;;;;7392039;19;20631;-73
2022/11/02 06:01:10;;;;;;;1.70;0.90;;;13.50;99.90;;;;;;7391134;19;20150;-71
2022/11/02 06:03:36;;;;;;;4.45;1.10;;;13.50;99.90;;;;;;7388518;19;20155;-74
2022/11/02 06:06:08;;;;;;;4.57;1.47;;;13.40;99.90;;;;;;7390351;19;20222;-74
2022/11/02 06:08:36;;;;;;;4.43;1.67;;;13.50;99.90;;;;;;7388468;19;20572;-75
2022/11/02 06:11:10;;;;;;;2.97;1.17;;;13.50;99.90;;;;;;7390698;19;20146;-74
2022/11/02 06:13:36;;;;;;;3.40;1.20;;;13.70;99.90;;;;;;7390827;19;20615;-73
2022/11/02 06:16:05;;;;;;;4.28;1.42;;;13.70;99.90;;;;;;7385640;19;20143;-73
2022/11/02 06:18:31;;;;;;;6.13;1.77;;;13.80;99.90;;;;;;7388977;19;20143;-74
2022/11/02 06:20:57;;;;;;;2.77;1.50;;;13.70;99.90;;;;;;7383805;19;20405;-75
2022/11/02 06:23:24;;;;;;;5.40;1.70;;;13.70;99.90;;;;;;7396317;19;20497;-75
2022/11/02 06:25:51;;;;;;;3.72;1.55;;;13.80;99.90;;;;;;7396253;19;20249;-75
2022/11/02 06:28:17;;;;;;;5.63;1.33;;;13.80;99.90;;;;;;7395091;19;20165;-73
2022/11/02 06:30:43;;;;;;;3.90;1.13;;;13.70;99.90;;;;;;7394528;19;20138;-74
2022/11/02 06:33:09;;;;;;;5.20;1.17;;;13.60;99.90;;;;;;7394714;19;20134;-75
2022/11/02 06:35:34;;;;;;;3.43;1.10;;;13.70;99.90;;;;;;7395896;19;20205;-76
2022/11/02 06:38:00;;;;;;;4.22;1.52;;;13.80;99.90;;;;;;7393271;19;20127;-76
2022/11/02 06:40:27;;;;;;;4.50;2.67;;;13.90;99.90;;;;;;7393316;19;20118;-76
2022/11/02 06:42:56;;;;;;;6.85;2.15;;;13.80;99.90;;;;;;7394284;19;20135;-76
2022/11/02 06:45:23;;;;;;;4.70;1.70;;;13.80;99.90;;;;;;7394241;19;20152;-76
2022/11/02 06:47:49;;;;;;;5.77;2.23;;;13.80;99.90;;;;;;7395182;19;20126;-75
2022/11/02 06:50:15;;;;;;;4.40;1.60;;;13.80;99.90;;;;;;7392323;19;20145;-76
2022/11/02 06:52:46;;;;;;;3.77;1.40;;;13.90;99.90;;;;;;7394245;19;20130;-75
2022/11/02 06:55:13;;;;;;;3.67;1.33;;;13.90;99.90;;;;;;7393929;19;20157;-75
2022/11/02 06:57:40;;;;;;;4.22;1.60;;;14.00;99.90;;;;;;7393573;19;20130;-74
2022/11/02 07:00:11;;;;;;;3.73;1.47;;;14.00;99.90;;;;;;7390173;19;20131;-74
2022/11/02 07:02:37;;;;;;;5.22;1.60;;;13.90;99.90;;;;;;7392766;19;20131;-74
2022/11/02 07:05:03;;;;;;;4.03;1.73;;;13.90;99.90;;;;;;7396372;19;20603;-74
2022/11/02 07:07:29;;;;;;;5.00;1.35;;;14.00;99.90;;;;;;7394769;19;20131;-75
2022/11/02 07:09:55;;;;;;;2.47;1.20;;;14.00;99.90;;;;;;7394046;19;20131;-76
2022/11/02 07:12:20;;;;;;;4.93;1.80;;;14.10;99.90;;;;;;7393943;19;20160;-74
2022/11/02 07:14:46;;;;;;;5.93;1.85;;;14.20;99.90;;;;;;7394990;19;20131;-76
2022/11/02 07:17:12;;;;;;;3.58;1.40;;;14.10;99.90;;;;;;7395186;19;20134;-75
2022/11/02 07:19:37;;;;;;;5.13;1.60;;;14.00;99.90;;;;;;7393990;19;20682;-75
2022/11/02 07:22:04;;;;;;;3.75;1.40;;;14.00;99.90;;;;;;7393947;19;20611;-75
2022/11/02 07:24:32;;;;;;;2.70;1.10;;;14.10;99.90;;;;;;7396096;19;20154;-75
2022/11/02 07:26:58;;;;;;;4.70;1.40;;;14.10;99.90;;;;;;7400338;19;20135;-76
2022/11/02 07:29:24;;;;;;;6.07;1.45;;;14.20;99.90;;;;;;7400485;19;20615;-76
2022/11/02 07:31:49;;;;;;;5.03;1.30;;;14.10;99.90;;;;;;7395976;19;20134;-75
2022/11/02 07:34:15;;;;;;;3.95;1.33;;;14.00;99.90;;;;;;7398855;19;20143;-75
2022/11/02 07:36:41;;;;;;;6.35;1.40;;;14.10;99.90;;;;;;7397404;19;20604;-76
2022/11/02 07:39:07;;;;;;;4.28;1.30;;;14.20;99.90;;;;;;7405228;19;20184;-76
2022/11/02 07:41:34;;;;;;;4.03;1.75;;;14.20;99.90;;;;;;7399593;19;20142;-76
2022/11/02 07:44:00;;;;;;;7.13;3.15;;;14.20;99.90;;;;;;7403983;19;20126;-75
2022/11/02 07:46:25;;;;;;;6.53;2.20;;;14.10;99.90;;;;;;7401010;19;20150;-75
2022/11/02 07:48:51;;;;;;;4.57;1.38;;;14.20;99.90;;;;;;7398848;19;20126;-76
2022/11/02 07:51:17;;;;;;;6.03;1.30;;;14.10;99.90;;;;;;7392801;19;20154;-76
2022/11/02 07:53:43;;;;;;;4.68;1.27;;;14.10;99.90;;;;;;7391581;19;20133;-75
2022/11/02 07:56:09;;;;;;;3.05;1.52;;;14.10;99.90;;;;;;7394565;19;20192;-78
2022/11/02 07:58:35;;;;;;;7.00;1.33;;;14.10;99.90;;;;;;7393415;19;20172;-77
2022/11/02 08:01:01;;;;;;;4.63;1.20;;;14.30;99.90;;;;;;7392221;19;20154;-76
2022/11/02 08:03:31;;;;;;;6.05;1.45;;;14.40;99.90;;;;;;7391626;19;20150;-76
2022/11/02 08:06:01;;;;;;;3.15;1.13;;;14.50;99.90;;;;;;7394871;19;20537;-76
2022/11/02 08:08:26;;;;;;;4.22;1.73;;;14.50;99.90;;;;;;7392693;19;20145;-77
2022/11/02 08:10:52;;;;;;;3.88;1.33;;;14.40;99.90;;;;;;7390070;19;20655;-75
2022/11/02 08:13:20;;;;;;;6.85;2.65;;;14.50;99.90;;;;;;7390737;19;20238;-75
2022/11/02 08:15:53;;;;;;;7.65;2.63;;;14.70;99.90;;;;;;7391336;19;20501;-76
2022/11/02 08:18:21;;;;;;;5.35;2.05;;;14.70;99.90;;;;;;7392355;19;20141;-76
2022/11/02 08:20:48;;;;;;;3.67;1.85;;;14.80;99.90;;;;;;7387436;19;20165;-76
2022/11/02 08:23:15;;;;;;;5.85;1.50;;;14.80;99.90;;;;;;7392651;19;20494;-75
2022/11/02 08:25:44;;;;;;;3.42;1.20;;;14.80;99.90;;;;;;7393888;19;20685;-77
2022/11/02 08:28:17;;;;;;;3.03;1.30;;;14.80;99.90;;;;;;7392541;19;20139;-76
2022/11/02 08:30:43;;;;;;;3.83;1.27;;;14.70;99.90;;;;;;7391436;19;20614;-76
2022/11/02 08:33:12;;;;;;;4.88;1.33;;;14.90;99.90;;;;;;7391436;19;20154;-76
2022/11/02 08:35:39;;;;;;;3.10;1.60;;;14.90;99.90;;;;;;7393865;19;20147;-75
2022/11/02 08:38:05;;;;;;;3.97;1.05;;;14.90;99.90;;;;;;7392123;19;20146;-75
2022/11/02 08:40:32;;;;;;;3.63;1.13;;;14.70;99.90;;;;;;7390492;19;20703;-74
2022/11/02 08:42:59;;;;;;;5.82;1.40;;;14.80;99.90;;;;;;7391279;19;20161;-76
2022/11/02 08:45:26;;;;;;;2.97;1.35;;;15.00;99.90;;;;;;7391558;19;20142;-76
2022/11/02 08:47:53;;;;;;;6.78;3.03;;;15.00;99.90;;;;;;7392400;19;20213;-76
2022/11/02 08:50:18;;;;;;;3.70;1.85;;;14.80;99.90;;;;;;7390874;19;20143;-75
2022/11/02 08:52:44;;;;;;;4.95;1.73;;;14.90;99.90;;;;;;7390379;19;20178;-76
2022/11/02 08:55:10;;;;;;;7.60;1.55;;;14.90;99.90;;;;;;7389012;19;20159;-75
2022/11/02 08:57:50;;;;;;;6.95;1.92;;;14.90;99.90;;;;;;7390418;19;20551;-76
2022/11/02 09:00:18;;;;;;;6.90;1.60;;;15.00;99.90;;;;;;7384021;19;20495;-75
2022/11/02 09:02:59;;;;;;;4.13;1.10;;;15.10;99.90;;;;;;7384405;19;20184;-76
2022/11/02 09:05:26;;;;;;;2.60;1.27;;;15.40;99.90;;;;;;7391342;19;20137;-73
2022/11/02 09:08:00;;;;;;;4.00;1.27;;;15.30;99.90;;;;;;7392224;19;20603;-77
2022/11/02 09:10:29;;;;;;;5.28;1.35;;;15.30;99.90;;;;;;7395452;19;20226;-75
2022/11/02 09:12:55;;;;;;;4.25;1.50;;;15.30;99.90;;;;;;7392706;19;20162;-75
2022/11/02 09:15:21;;;;;;;9.27;1.63;;;15.50;99.90;;;;;;7389544;19;20143;-75
2022/11/02 09:17:48;;;;;;;2.97;1.27;;;15.40;99.90;;;;;;7391171;19;20564;-76
2022/11/02 09:20:17;;;;;;;5.10;1.38;;;15.40;99.90;;;;;;7388999;19;20241;-75
2022/11/02 09:22:44;;;;;;;5.55;1.65;;;15.50;99.90;;;;;;7387739;19;20181;-75
2022/11/02 09:25:10;;;;;;;4.55;1.65;;;15.50;99.90;;;;;;7388255;19;20508;-75
2022/11/02 09:27:36;;;;;;;2.50;1.38;;;15.40;99.90;;;;;;7387705;19;20150;-75
2022/11/02 09:30:03;;;;;;;8.32;1.20;;;15.50;99.90;;;;;;7390230;19;20487;-75
2022/11/02 09:32:32;;;;;;;4.10;1.80;;;15.40;99.90;;;;;;7387694;19;20138;-75
2022/11/02 09:35:03;;;;;;;5.22;1.67;;;15.50;99.90;;;;;;7387992;19;20139;-75
2022/11/02 09:37:29;;;;;;;4.00;1.70;;;15.70;99.90;;;;;;7385528;19;20559;-75
2022/11/02 09:39:55;;;;;;;3.55;1.40;;;15.80;99.90;;;;;;7389161;19;20134;-76
2022/11/02 09:42:26;;;;;;;4.35;1.70;;;15.70;99.90;;;;;;7384958;19;20134;-75
2022/11/02 09:45:00;;;;;;;6.18;1.85;;;15.80;99.90;;;;;;7384542;19;20135;-74
2022/11/02 09:47:28;;;;;;;4.03;1.65;;;15.80;99.90;;;;;;7386100;19;20161;-74
2022/11/02 09:50:24;;;;;;;5.20;2.07;;;15.80;99.90;;;;;;7363092;19;20170;-76
2022/11/02 09:53:01;;;;;;;9.10;4.72;;;15.70;99.90;;;;;;7385355;19;20130;-77
2022/11/02 09:55:35;;;;;;;9.15;5.30;;;15.70;99.90;;;;;;7391012;19;20234;-74
2022/11/02 09:58:09;;;;;;;2.90;1.67;;;15.80;99.90;;;;;;7401060;19;20134;-75
2022/11/02 10:00:39;;;;;;;5.22;1.42;;;16.00;99.90;;;;;;7397835;19;20170;-75
2022/11/02 10:03:23;;;;;;;6.20;3.28;;;16.10;99.90;;;;;;7399476;19;20174;-75
2022/11/02 10:06:01;;;;;;;7.25;1.85;;;15.90;99.90;;;;;;7400931;19;20599;-76
2022/11/02 10:08:31;;;;;;;3.53;1.92;;;15.90;99.90;;;;;;7401478;19;20162;-77
2022/11/02 10:11:12;;;;;;;10.45;4.93;;;15.90;99.90;;;;;;7397536;19;20147;-77
2022/11/02 10:13:53;;;;;;;6.32;1.75;;;15.90;99.90;;;;;;7404085;19;20134;-75
2022/11/02 10:16:24;;;;;;;6.68;1.25;;;16.00;99.90;;;;;;7405882;19;20147;-76
2022/11/02 10:18:52;;;;;;;2.80;1.52;;;16.00;99.90;;;;;;7403434;19;20163;-76
2022/11/02 10:21:37;;;;;;;3.53;1.95;;;16.00;99.90;;;;;;7401238;19;20142;-75
2022/11/02 10:24:34;;;;;;;8.05;2.72;;;16.20;99.90;;;;;;7400089;19;20134;-75
2022/11/02 10:27:03;;;;;;;6.57;1.90;;;16.00;99.90;;;;;;7400497;19;20475;-74
2022/11/02 10:30:21;;;;;;;3.85;1.38;;;16.20;99.90;;;;;;7399858;19;20138;-75
2022/11/02 10:32:51;;;;;;;5.60;1.73;;;16.00;99.90;;;;;;7390815;19;20375;-76
2022/11/02 10:35:19;;;;;;;7.03;3.35;;;16.00;99.90;;;;;;7396675;19;20211;-75
2022/11/02 10:38:14;;;;;;;13.32;6.80;;;16.10;99.90;;;;;;7397373;19;20139;-73
2022/11/02 10:41:10;;;;;;;10.10;2.15;;;16.30;99.90;;;;;;7392012;19;20150;-75
2022/11/02 10:44:02;;;;;;;9.43;2.22;;;16.40;99.90;;;;;;7391867;19;20170;-75
2022/11/02 10:46:44;;;;;;;6.15;2.25;;;16.30;99.90;;;;;;7396713;19;20556;-75
2022/11/02 10:49:15;;;;;;;5.78;1.60;;;16.10;99.90;;;;;;7396272;19;20169;-75
2022/11/02 10:51:41;;;;;;;6.10;2.65;;;16.10;99.90;;;;;;7392028;19;20138;-75
2022/11/02 10:54:15;;;;;;;6.93;2.28;;;16.20;99.90;;;;;;7397296;19;20134;-74
2022/11/02 10:56:42;;;;;;;6.90;2.70;;;16.10;99.90;;;;;;7397440;19;20137;-74
2022/11/02 10:59:15;;;;;;;6.30;1.95;;;15.90;99.90;;;;;;7392617;19;20150;-73
2022/11/02 11:02:03;;;;;;;8.48;2.17;;;16.10;99.90;;;;;;7395693;19;20130;-74
2022/11/02 11:04:31;;;;;;;5.20;2.00;;;16.30;99.90;;;;;;7394381;19;20158;-73
2022/11/02 11:07:03;;;;;;;11.68;2.50;;;16.30;99.90;;;;;;7406131;19;20127;-72
2022/11/02 11:09:53;;;;;;;8.23;1.50;;;16.20;99.90;;;;;;7395660;19;20150;-74
2022/11/02 11:12:37;;;;;;;5.00;2.75;;;16.10;99.90;;;;;;7395462;19;20138;-73
2022/11/02 11:15:05;;;;;;;6.50;1.55;;;16.10;99.90;;;;;;7393007;19;20468;-74
2022/11/02 11:17:35;;;;;;;6.80;3.25;;;16.00;99.90;;;;;;7393397;19;20133;-74
2022/11/02 11:20:06;;;;;;;4.07;1.90;;;16.00;99.90;;;;;;7392660;19;20516;-74
2022/11/02 11:22:35;;;;;;;5.13;2.05;;;16.20;99.90;;;;;;7395620;19;20223;-75
2022/11/02 11:25:21;;;;;;;3.65;1.80;;;16.20;99.90;;;;;;7393471;19;20142;-76
2022/11/02 11:28:27;;;;;;;4.25;2.50;;;16.20;99.90;;;;;;7394280;19;20143;-75
2022/11/02 11:31:05;;;;;;;4.43;1.58;;;15.90;99.90;;;;;;7396160;19;20157;-73
2022/11/02 11:33:44;;;;;;;6.97;2.60;;;15.80;99.90;;;;;;7399430;19;20134;-75
2022/11/02 11:36:18;;;;;;;5.82;2.20;;;15.90;99.90;;;;;;7397060;19;20134;-77
2022/11/02 11:38:46;;;;;;;13.13;2.65;;;15.90;99.90;;;;;;7394150;19;20334;-75
2022/11/02 11:41:12;;;;;;;3.90;1.25;;;16.10;99.90;;;;;;7391476;19;20139;-76
2022/11/02 11:43:39;;;;;;;5.32;1.70;;;16.20;99.90;;;;;;7391297;19;20151;-75
2022/11/02 11:46:07;;;;;;;4.63;2.03;;;16.30;99.90;;;;;;7394492;19;20157;-75
2022/11/02 11:48:47;;;;;;;7.13;2.58;;;16.50;99.90;;;;;;7392203;19;20161;-75
2022/11/02 11:51:41;;;;;;;4.47;1.35;;;16.50;99.90;;;;;;7394816;19;20165;-75
2022/11/02 11:54:13;;;;;;;4.90;1.77;;;16.60;99.90;;;;;;7391750;19;20150;-74
2022/11/02 11:56:39;;;;;;;2.58;1.33;;;16.70;99.90;;;;;;7393075;19;20989;-75
2022/11/02 11:59:20;;;;;;;8.80;3.55;;;16.90;99.90;;;;;;7393402;19;20153;-75
2022/11/02 12:01:46;;;;;;;8.93;2.50;;;16.80;99.90;;;;;;7395386;19;20157;-75
2022/11/02 12:04:12;;;;;;;7.07;3.80;;;16.80;99.90;;;;;;7399403;19;20235;-74
2022/11/02 12:06:48;;;;;;;4.93;2.33;;;16.70;99.90;;;;;;7399791;19;20655;-73
2022/11/02 12:09:23;;;;;;;4.18;1.70;;;16.80;99.90;;;;;;7397342;19;20138;-74
2022/11/02 12:12:07;;;;;;;3.78;1.30;;;16.90;99.90;;;;;;7400664;19;20151;-74
2022/11/02 12:14:52;;;;;;;5.85;1.33;;;17.00;99.90;;;;;;7401344;19;20141;-74
2022/11/02 12:17:39;;;;;;;3.08;1.50;;;16.80;99.90;;;;;;7402772;19;20134;-74
2022/11/02 12:20:33;;;;;;;4.22;1.45;;;16.70;99.90;;;;;;7400599;19;20183;-74
2022/11/02 12:23:23;;;;;;;4.03;1.52;;;16.80;99.90;;;;;;7409895;19;20210;-74
2022/11/02 12:26:10;;;;;;;4.15;1.48;;;16.70;99.90;;;;;;7409040;19;20138;-74
2022/11/02 12:28:42;;;;;;;14.18;6.10;;;16.90;99.90;;;;;;7404406;19;20151;-75
2022/11/02 12:31:21;;;;;;;5.82;3.22;;;16.90;99.90;;;;;;7395519;19;20979;-74
2022/11/02 12:33:49;;;;;;;7.13;3.38;;;16.90;99.90;;;;;;7392954;19;20135;-74
2022/11/02 12:36:40;;;;;;;8.68;3.83;;;17.10;99.90;;;;;;7395440;19;20138;-75
2022/11/02 12:39:34;;;;;;;9.23;2.22;;;17.10;99.90;;;;;;7394674;19;20136;-75
2022/11/02 12:42:16;;;;;;;9.73;1.55;;;17.10;99.90;;;;;;7392106;19;20169;-75
2022/11/02 12:44:51;;;;;;;4.32;1.50;;;17.10;99.90;;;;;;7391274;19;20130;-74
2022/11/02 12:47:25;;;;;;;3.33;1.30;;;17.30;99.90;;;;;;7392832;19;20139;-74
2022/11/02 12:50:20;;;;;;;4.95;1.30;;;17.40;99.90;;;;;;7395791;19;20141;-74
2022/11/02 12:53:29;;;;;;;4.50;1.20;;;17.60;99.90;;;;;;7395296;19;20628;-74
2022/11/02 12:55:59;;;;;;;4.53;1.98;;;17.60;99.90;;;;;;7394360;19;20138;-74
2022/11/02 12:58:31;;;;;;;5.22;2.35;;;17.40;99.90;;;;;;7394241;19;20156;-74
2022/11/02 13:01:10;;;;;;;5.03;2.40;;;17.40;99.90;;;;;;7391825;19;20254;-76
2022/11/02 13:04:05;;;;;;;7.07;2.50;;;17.40;99.90;;;;;;7393990;19;20456;-75
2022/11/02 13:06:42;;;;;;;3.75;1.85;;;17.20;99.90;;;;;;7393481;19;20142;-74
2022/11/02 13:09:29;;;;;;;3.85;1.60;;;17.20;99.90;;;;;;7394096;19;20630;-75
2022/11/02 13:12:02;;;;;;;5.50;1.60;;;17.30;99.90;;;;;;7392918;19;20591;-75
2022/11/02 13:14:37;;;;;;;7.03;1.73;;;17.50;99.90;;;;;;7392731;19;20141;-76
2022/11/02 13:17:10;;;;;;;6.15;1.75;;;17.60;99.90;;;;;;7393632;19;20165;-75
2022/11/02 13:19:44;;;;;;;5.43;1.40;;;17.50;99.90;;;;;;7392444;19;20326;-74
2022/11/02 13:22:12;;;;;;;5.13;1.20;;;17.20;99.90;;;;;;7391291;19;20523;-75
2022/11/02 13:24:54;;;;;;;3.20;1.00;;;17.20;99.90;;;;;;7390902;19;20154;-77